createdAt,value
2022-10-28T00:01:13.344Z,95290.19
2022-10-28T00:03:42.700Z,95295.38
2022-10-28T00:06:12.387Z,95296.34
2022-10-28T00:08:39.401Z,95296.81
2022-10-28T00:11:11.546Z,95298.13
2022-10-28T00:13:39.049Z,95296.75
2022-10-28T00:16:08.856Z,95298.69
2022-10-28T00:18:35.646Z,95300.97
2022-10-28T00:21:08.597Z,95291.91
2022-10-28T00:23:35.419Z,95294.66
2022-10-28T00:26:14.700Z,95299.00
2022-10-28T00:28:49.140Z,95298.47
2022-10-28T00:31:18.010Z,95295.25
2022-10-28T00:33:45.326Z,95295.63
2022-10-28T00:36:15.174Z,95300.56
2022-10-28T00:38:42.940Z,95299.03
2022-10-28T00:41:10.771Z,95301.34
2022-10-28T00:43:43.366Z,95303.50
2022-10-28T00:46:36.493Z,95309.31
2022-10-28T00:49:16.481Z,95285.56
2022-10-28T00:51:44.641Z,95294.56
2022-10-28T00:54:12.537Z,95297.63
2022-10-28T00:56:43.147Z,95292.22
2022-10-28T00:59:16.535Z,95296.53
2022-10-28T01:01:43.452Z,95297.47
2022-10-28T01:04:11.284Z,95286.50
2022-10-28T01:06:38.196Z,95281.50
2022-10-28T01:09:04.896Z,95282.94
2022-10-28T01:11:44.869Z,95283.91
2022-10-28T01:14:11.476Z,95284.19
2022-10-28T01:17:03.936Z,95271.97
2022-10-28T01:20:12.504Z,95279.41
2022-10-28T01:22:58.466Z,95276.22
2022-10-28T01:25:43.455Z,95274.72
2022-10-28T01:28:28.676Z,95277.78
2022-10-28T01:30:55.374Z,95278.69
2022-10-28T01:33:26.850Z,95270.47
2022-10-28T01:35:57.765Z,95271.09
2022-10-28T01:38:43.226Z,95271.25
2022-10-28T01:41:11.623Z,95267.72
2022-10-28T01:43:59.846Z,95276.16
2022-10-28T01:46:31.459Z,95271.28
2022-10-28T01:49:01.475Z,95276.03
2022-10-28T01:51:36.056Z,95284.63
2022-10-28T01:54:05.704Z,95285.31
2022-10-28T01:56:37.500Z,95278.53
2022-10-28T01:59:06.877Z,95284.34
2022-10-28T02:01:34.467Z,95283.81
2022-10-28T02:04:01.487Z,95273.97
2022-10-28T02:06:29.914Z,95289.47
2022-10-28T02:09:24.620Z,95281.59
2022-10-28T02:12:14.854Z,95275.00
2022-10-28T02:15:14.429Z,95274.03
2022-10-28T02:17:41.027Z,95272.69
2022-10-28T02:20:34.296Z,95272.53
2022-10-28T02:23:12.228Z,95282.75
2022-10-28T02:25:45.567Z,95281.16
2022-10-28T02:28:55.189Z,95282.78
2022-10-28T02:31:29.924Z,95276.66
2022-10-28T02:34:00.784Z,95281.47
2022-10-28T02:36:28.821Z,95268.88
2022-10-28T02:38:57.992Z,95260.69
2022-10-28T02:41:29.365Z,95268.91
2022-10-28T02:44:00.806Z,95277.97
2022-10-28T02:46:30.017Z,95265.06
2022-10-28T02:49:02.817Z,95275.19
2022-10-28T02:51:36.995Z,95275.50
2022-10-28T02:54:15.492Z,95277.91
2022-10-28T02:57:12.997Z,95271.16
2022-10-28T02:59:40.247Z,95274.84
2022-10-28T03:02:07.040Z,95271.47
2022-10-28T03:04:33.809Z,95275.19
2022-10-28T03:07:00.536Z,95275.03
2022-10-28T03:09:27.246Z,95265.53
2022-10-28T03:11:53.924Z,95273.44
2022-10-28T03:14:20.696Z,95272.75
2022-10-28T03:16:47.458Z,95271.81
2022-10-28T03:19:14.179Z,95275.50
2022-10-28T03:21:40.966Z,95275.03
2022-10-28T03:24:07.658Z,95266.31
2022-10-28T03:26:34.398Z,95266.31
2022-10-28T03:29:01.102Z,95275.50
2022-10-28T03:31:27.877Z,95256.69
2022-10-28T03:33:54.627Z,95264.56
2022-10-28T03:36:21.346Z,95272.91
2022-10-28T03:38:48.246Z,95269.81
2022-10-28T03:41:15.016Z,95262.41
2022-10-28T03:43:41.796Z,95267.63
2022-10-28T03:46:08.526Z,95273.56
2022-10-28T03:48:35.264Z,95270.50
2022-10-28T03:51:01.957Z,95277.28
2022-10-28T03:53:31.193Z,95266.00
2022-10-28T03:55:59.846Z,95272.28
2022-10-28T03:58:26.810Z,95265.22
2022-10-28T04:00:54.147Z,95251.50
2022-10-28T04:03:22.275Z,95270.34
2022-10-28T04:05:49.146Z,95262.59
2022-10-28T04:08:17.225Z,95262.78
2022-10-28T04:10:47.277Z,95259.41
2022-10-28T04:13:15.136Z,95262.94
2022-10-28T04:15:41.927Z,95263.72
2022-10-28T04:18:08.707Z,95260.84
2022-10-28T04:20:35.331Z,95267.91
2022-10-28T04:23:02.381Z,95264.41
2022-10-28T04:25:29.257Z,95267.94
2022-10-28T04:27:56.197Z,95258.59
2022-10-28T04:30:23.214Z,95261.50
2022-10-28T04:32:49.770Z,95266.66
2022-10-28T04:35:36.528Z,95266.63
2022-10-28T04:38:03.112Z,95263.75
2022-10-28T04:40:29.694Z,95265.66
2022-10-28T04:42:56.430Z,95262.78
2022-10-28T04:45:23.270Z,95264.41
2022-10-28T04:47:49.917Z,95266.31
2022-10-28T04:50:16.598Z,95265.50
2022-10-28T04:52:43.156Z,95268.38
2022-10-28T04:55:09.973Z,95261.00
2022-10-28T04:57:36.579Z,95268.38
2022-10-28T05:00:04.579Z,95269.22
2022-10-28T05:02:31.348Z,95272.41
2022-10-28T05:05:02.355Z,95269.53
2022-10-28T05:07:29.379Z,95271.47
2022-10-28T05:09:55.934Z,95268.53
2022-10-28T05:12:22.712Z,95268.72
2022-10-28T05:14:51.221Z,95265.03
2022-10-28T05:17:19.792Z,95264.06
2022-10-28T05:19:46.477Z,95264.09
2022-10-28T05:22:13.143Z,95267.78
2022-10-28T05:24:39.722Z,95264.56
2022-10-28T05:27:06.633Z,95265.84
2022-10-28T05:29:33.560Z,95262.13
2022-10-28T05:32:00.691Z,95264.09
2022-10-28T05:34:27.445Z,95265.38
2022-10-28T05:36:54.164Z,95265.69
2022-10-28T05:39:20.905Z,95257.94
2022-10-28T05:41:47.573Z,95271.47
2022-10-28T05:44:14.285Z,95273.69
2022-10-28T05:46:41.013Z,95274.69
2022-10-28T05:49:07.784Z,95279.16
2022-10-28T05:51:34.552Z,95270.19
2022-10-28T05:54:01.327Z,95266.66
2022-10-28T05:56:28.082Z,95279.53
2022-10-28T05:58:54.784Z,95275.50
2022-10-28T06:01:21.525Z,95275.00
2022-10-28T06:03:48.314Z,95281.47
2022-10-28T06:06:15.145Z,95272.59
2022-10-28T06:08:41.924Z,95283.41
2022-10-28T06:11:07.187Z,95289.03
2022-10-28T06:13:33.867Z,95285.97
2022-10-28T06:16:00.682Z,95274.06
2022-10-28T06:18:27.394Z,95276.97
2022-10-28T06:20:56.360Z,95282.75
2022-10-28T06:23:24.369Z,95283.72
2022-10-28T06:28:27.892Z,95286.31
2022-10-28T06:31:01.264Z,95294.03
2022-10-28T06:33:28.113Z,95286.78
2022-10-28T06:35:59.064Z,95291.78
2022-10-28T06:38:27.052Z,95288.38
2022-10-28T06:40:56.784Z,95287.44
2022-10-28T06:43:23.811Z,95287.13
2022-10-28T06:45:55.069Z,95274.06
2022-10-28T06:48:23.925Z,95281.00
2022-10-28T06:50:50.650Z,95284.38
2022-10-28T06:53:17.408Z,95285.00
2022-10-28T06:55:48.900Z,95289.19
2022-10-28T06:58:16.050Z,95292.44
2022-10-28T07:00:42.811Z,95296.31
2022-10-28T07:03:10.154Z,95291.00
2022-10-28T07:05:36.997Z,95291.19
2022-10-28T07:08:04.386Z,95293.72
2022-10-28T07:10:31.272Z,95288.41
2022-10-28T07:12:58.085Z,95287.59
2022-10-28T07:15:24.996Z,95290.47
2022-10-28T07:17:56.138Z,95283.06
2022-10-28T07:20:24.009Z,95294.66
2022-10-28T07:23:01.102Z,95291.13
2022-10-28T07:25:29.043Z,95294.84
2022-10-28T07:27:57.985Z,95298.22
2022-10-28T07:30:24.797Z,95291.78
2022-10-28T07:32:52.053Z,95292.53
2022-10-28T07:35:19.028Z,95294.69
2022-10-28T07:37:45.807Z,95291.91
2022-10-28T07:40:12.791Z,95294.66
2022-10-28T07:42:39.499Z,95284.63
2022-10-28T07:45:06.719Z,95299.03
2022-10-28T07:47:33.464Z,95294.19
2022-10-28T07:50:00.257Z,95298.19
2022-10-28T07:52:26.933Z,95290.75
2022-10-28T07:54:53.647Z,95291.34
2022-10-28T07:57:20.466Z,95269.53
2022-10-28T07:59:47.199Z,95278.59
2022-10-28T08:02:18.795Z,95273.75
2022-10-28T08:04:45.717Z,95279.38
2022-10-28T08:07:13.150Z,95270.53
2022-10-28T08:09:40.653Z,95269.47
2022-10-28T08:12:08.479Z,95271.03
2022-10-28T08:14:35.537Z,95273.66
2022-10-28T08:17:02.218Z,95267.91
2022-10-28T08:19:29.002Z,95267.19
2022-10-28T08:21:55.681Z,95261.38
2022-10-28T08:24:22.679Z,95267.34
2022-10-28T08:26:49.454Z,95265.25
2022-10-28T08:29:16.323Z,95259.91
2022-10-28T08:31:43.091Z,95260.19
2022-10-28T08:34:09.912Z,95257.41
2022-10-28T08:36:36.653Z,95262.28
2022-10-28T08:39:03.570Z,95255.66
2022-10-28T08:41:45.692Z,95247.25
2022-10-28T08:44:31.069Z,95260.59
2022-10-28T08:47:17.332Z,95259.97
2022-10-28T08:49:47.140Z,95257.78
2022-10-28T08:52:41.475Z,95257.09
2022-10-28T08:55:15.854Z,95249.19
2022-10-28T08:58:11.123Z,95247.50
2022-10-28T09:00:38.331Z,95226.22
2022-10-28T09:03:22.567Z,95243.75
2022-10-28T09:05:54.585Z,95238.38
2022-10-28T09:08:23.928Z,95236.00
2022-10-28T09:10:56.724Z,95246.59
2022-10-28T09:13:29.556Z,95248.88
2022-10-28T09:16:13.721Z,95253.22
2022-10-28T09:18:59.306Z,95250.53
2022-10-28T09:21:33.988Z,95251.78
2022-10-28T09:24:07.599Z,95244.28
2022-10-28T09:26:47.193Z,95240.41
2022-10-28T09:29:41.888Z,95250.84
2022-10-28T09:32:20.057Z,95245.75
2022-10-28T09:35:16.126Z,95244.47
2022-10-28T09:37:53.066Z,95240.09
2022-10-28T09:40:22.830Z,95239.34
2022-10-28T09:43:05.797Z,95247.84
2022-10-28T09:45:34.016Z,95251.25
2022-10-28T09:48:05.648Z,95256.13
2022-10-28T09:50:33.242Z,95261.56
2022-10-28T09:53:18.010Z,95257.78
2022-10-28T09:55:44.858Z,95260.91
2022-10-28T09:58:12.976Z,95254.09
2022-10-28T10:00:39.947Z,95254.22
2022-10-28T10:03:06.591Z,95251.63
2022-10-28T10:05:37.339Z,95243.66
2022-10-28T10:08:05.626Z,95252.84
2022-10-28T10:10:44.812Z,95234.84
2022-10-28T10:13:13.164Z,95249.13
2022-10-28T10:15:45.959Z,95255.25
2022-10-28T10:18:20.416Z,95247.88
2022-10-28T10:21:00.552Z,95250.66
2022-10-28T10:23:31.618Z,95245.16
2022-10-28T10:26:02.007Z,95241.06
2022-10-28T10:28:29.420Z,95242.28
2022-10-28T10:31:01.896Z,95237.78
2022-10-28T10:33:39.530Z,95241.47
2022-10-28T10:36:17.640Z,95232.16
2022-10-28T10:38:55.392Z,95236.72
2022-10-28T10:41:38.487Z,95228.63
2022-10-28T10:44:30.334Z,95244.03
2022-10-28T10:47:04.968Z,95234.09
2022-10-28T10:49:34.250Z,95235.91
2022-10-28T10:52:09.938Z,95226.91
2022-10-28T10:54:37.722Z,95229.66
2022-10-28T10:57:09.344Z,95226.22
2022-10-28T10:59:37.920Z,95221.88
2022-10-28T11:02:05.101Z,95213.09
2022-10-28T11:04:36.888Z,95215.78
2022-10-28T11:07:03.650Z,95209.53
2022-10-28T11:09:36.299Z,95219.06
2022-10-28T11:12:20.740Z,95214.88
2022-10-28T11:14:56.113Z,95222.28
2022-10-28T11:17:26.427Z,95204.63
2022-10-28T11:19:56.282Z,95205.34
2022-10-28T11:22:38.988Z,95209.13
2022-10-28T11:25:27.937Z,95210.47
2022-10-28T11:28:28.647Z,95195.28
2022-10-28T11:31:10.412Z,95195.31
2022-10-28T11:34:07.861Z,95189.91
2022-10-28T11:36:52.780Z,95185.44
2022-10-28T11:39:36.880Z,95189.75
2022-10-28T11:42:20.691Z,95179.00
2022-10-28T11:44:51.265Z,95183.50
2022-10-28T11:47:32.826Z,95176.50
2022-10-28T11:50:23.219Z,95169.97
2022-10-28T11:52:56.001Z,95162.00
2022-10-28T11:55:40.118Z,95161.31
2022-10-28T11:58:32.796Z,95166.84
2022-10-28T12:01:38.381Z,95158.44
2022-10-28T12:04:30.968Z,95158.72
2022-10-28T12:07:20.234Z,95146.66
2022-10-28T12:09:54.021Z,95146.78
2022-10-28T12:12:33.438Z,95147.47
2022-10-28T12:15:39.232Z,95142.81
2022-10-28T12:18:29.448Z,95140.88
2022-10-28T12:20:59.315Z,95135.94
2022-10-28T12:23:27.201Z,95131.78
2022-10-28T12:25:57.435Z,95126.53
2022-10-28T12:28:42.598Z,95124.78
2022-10-28T12:31:25.321Z,95123.28
2022-10-28T12:34:05.116Z,95122.50
2022-10-28T12:36:38.908Z,95122.84
2022-10-28T12:39:15.836Z,95122.91
2022-10-28T12:41:52.861Z,95116.22
2022-10-28T12:44:21.209Z,95119.22
2022-10-28T12:47:03.138Z,95113.47
2022-10-28T12:50:08.439Z,95114.97
2022-10-28T12:53:12.732Z,95116.09
2022-10-28T12:55:59.722Z,95117.47
2022-10-28T13:01:36.486Z,95103.75
2022-10-28T13:04:03.888Z,95112.19
2022-10-28T13:06:42.542Z,95101.16
2022-10-28T13:09:13.635Z,95105.41
2022-10-28T13:12:08.377Z,95101.53
2022-10-28T13:14:59.089Z,95110.47
2022-10-28T13:17:39.129Z,95106.03
2022-10-28T13:20:26.879Z,95105.00
2022-10-28T13:23:16.648Z,95105.56
2022-10-28T13:26:10.488Z,95097.28
2022-10-28T13:28:46.968Z,95105.50
2022-10-28T13:31:15.544Z,95102.13
2022-10-28T13:33:59.483Z,95098.16
2022-10-28T13:36:28.913Z,95093.78
2022-10-28T13:38:59.905Z,95085.50
2022-10-28T13:41:37.602Z,95092.50
2022-10-28T13:44:10.370Z,95091.13
2022-10-28T13:46:58.962Z,95091.88
2022-10-28T13:49:26.271Z,95089.03
2022-10-28T13:52:02.616Z,95089.00
2022-10-28T13:54:56.351Z,95090.84
2022-10-28T13:57:27.059Z,95088.22
2022-10-28T14:00:00.584Z,95084.09
2022-10-28T14:02:41.096Z,95084.69
2022-10-28T14:05:13.071Z,95080.44
2022-10-28T14:07:50.845Z,95074.66
2022-10-28T14:10:32.012Z,95080.47
2022-10-28T14:13:04.709Z,95083.69
2022-10-28T14:15:36.250Z,95080.41
2022-10-28T14:18:15.656Z,95074.03
2022-10-28T14:20:49.671Z,95080.34
2022-10-28T14:23:22.477Z,95071.75
2022-10-28T14:25:52.130Z,95078.22
2022-10-28T14:28:30.791Z,95069.59
2022-10-28T14:31:12.449Z,95063.53
2022-10-28T14:33:41.592Z,95060.09
2022-10-28T14:36:20.272Z,95064.75
2022-10-28T14:38:58.470Z,95058.75
2022-10-28T14:41:54.236Z,95058.19
2022-10-28T14:44:39.770Z,95055.88
2022-10-28T14:47:27.458Z,95053.19
2022-10-28T14:50:07.449Z,95058.63
2022-10-28T14:52:36.594Z,95049.09
2022-10-28T14:55:06.152Z,95052.59
2022-10-28T14:57:34.432Z,95051.91
2022-10-28T15:00:07.662Z,95049.28
2022-10-28T15:02:35.983Z,95047.56
2022-10-28T15:05:16.405Z,95049.28
2022-10-28T15:07:43.762Z,95046.88
2022-10-28T15:10:15.970Z,95039.56
2022-10-28T15:12:44.895Z,95041.63
2022-10-28T15:15:19.282Z,95040.25
2022-10-28T15:17:46.003Z,95038.72
2022-10-28T15:20:23.980Z,95036.53
2022-10-28T15:22:53.696Z,95045.00
2022-10-28T15:25:22.142Z,95044.00
2022-10-28T15:27:52.294Z,95046.00
2022-10-28T15:30:26.134Z,95044.97
2022-10-28T15:32:53.959Z,95038.69
2022-10-28T15:35:38.202Z,95046.22
2022-10-28T15:38:26.364Z,95042.44
2022-10-28T15:40:53.139Z,95037.69
2022-10-28T15:43:30.267Z,95044.75
2022-10-28T15:46:10.898Z,95047.09
2022-10-28T15:48:37.937Z,95046.56
2022-10-28T15:51:18.083Z,95052.16
2022-10-28T15:53:46.113Z,95054.97
2022-10-28T15:56:21.890Z,95051.69
2022-10-28T15:59:07.172Z,95054.09
2022-10-28T16:01:39.595Z,95056.16
2022-10-28T16:04:23.651Z,95056.97
2022-10-28T16:06:52.529Z,95065.13
2022-10-28T16:09:19.979Z,95068.03
2022-10-28T16:11:51.885Z,95065.50
2022-10-28T16:14:27.269Z,95072.06
2022-10-28T16:16:54.191Z,95071.69
2022-10-28T16:19:37.199Z,95070.75
2022-10-28T16:22:04.704Z,95075.66
2022-10-28T16:24:31.426Z,95083.94
2022-10-28T16:27:18.202Z,95077.72
2022-10-28T16:29:45.150Z,95077.94
2022-10-28T16:32:12.907Z,95082.31
2022-10-28T16:34:39.907Z,95080.28
2022-10-28T16:37:24.651Z,95082.09
2022-10-28T16:39:51.647Z,95082.28
2022-10-28T16:42:18.825Z,95080.91
2022-10-28T16:44:45.926Z,95080.50
2022-10-28T16:47:14.285Z,95087.31
2022-10-28T16:49:41.364Z,95084.19
2022-10-28T16:52:22.559Z,95084.16
2022-10-28T16:54:50.566Z,95093.44
2022-10-28T16:57:19.499Z,95091.81
2022-10-28T16:59:46.857Z,95096.66
2022-10-28T17:02:33.359Z,95089.84
2022-10-28T17:05:01.019Z,95097.06
2022-10-28T17:07:28.450Z,95100.72
2022-10-28T17:09:57.047Z,95109.13
2022-10-28T17:12:27.859Z,95104.94
2022-10-28T17:14:54.816Z,95104.31
2022-10-28T17:17:21.655Z,95117.94
2022-10-28T17:19:48.390Z,95111.13
2022-10-28T17:22:15.128Z,95116.72
2022-10-28T17:24:41.916Z,95109.53
2022-10-28T17:27:08.901Z,95125.94
2022-10-28T17:29:35.775Z,95120.75
2022-10-28T17:32:02.679Z,95120.13
2022-10-28T17:34:29.678Z,95117.13
2022-10-28T17:36:56.678Z,95122.34
2022-10-28T17:39:26.179Z,95118.75
2022-10-28T17:41:53.565Z,95127.13
2022-10-28T17:44:20.325Z,95117.13
2022-10-28T17:46:50.026Z,95125.13
2022-10-28T17:49:16.834Z,95134.50
2022-10-28T17:51:43.917Z,95129.13
2022-10-28T17:54:10.910Z,95130.28
2022-10-28T17:56:39.383Z,95137.50
2022-10-28T17:59:06.334Z,95134.50
2022-10-28T18:01:34.748Z,95136.91
2022-10-28T18:04:03.747Z,95135.47
2022-10-28T18:06:30.621Z,95142.88
2022-10-28T18:08:58.378Z,95135.06
2022-10-28T18:11:25.484Z,95137.88
2022-10-28T18:13:53.705Z,95135.88
2022-10-28T18:16:27.614Z,95144.25
2022-10-28T18:18:55.641Z,95140.03
2022-10-28T18:21:24.477Z,95143.41
2022-10-28T18:23:57.247Z,95134.59
2022-10-28T18:26:23.950Z,95141.22
2022-10-28T18:28:50.938Z,95141.63
2022-10-28T18:31:19.480Z,95142.22
2022-10-28T18:33:47.174Z,95142.19
2022-10-28T18:36:15.721Z,95138.78
2022-10-28T18:38:42.706Z,95136.38
2022-10-28T18:41:11.377Z,95139.16
2022-10-28T18:43:38.472Z,95129.16
2022-10-28T18:46:05.320Z,95137.94
2022-10-28T18:48:32.158Z,95145.91
2022-10-28T18:51:01.297Z,95144.69
2022-10-28T18:53:28.294Z,95146.66
2022-10-28T18:56:00.099Z,95143.66
2022-10-28T18:58:27.565Z,95140.38
2022-10-28T19:00:54.304Z,95144.81
2022-10-28T19:03:22.732Z,95146.03
2022-10-28T19:05:50.420Z,95147.41
2022-10-28T19:08:17.191Z,95147.56
2022-10-28T19:10:44.066Z,95140.88
2022-10-28T19:13:10.788Z,95143.66
2022-10-28T19:15:42.149Z,95151.19
2022-10-28T19:18:08.908Z,95160.78
2022-10-28T19:20:35.630Z,95145.41
2022-10-28T19:23:02.492Z,95156.09
2022-10-28T19:25:29.228Z,95161.28
2022-10-28T19:27:57.258Z,95162.94
2022-10-28T19:30:24.027Z,95150.16
2022-10-28T19:32:50.608Z,95157.75
2022-10-28T19:35:17.504Z,95160.91
2022-10-28T19:37:44.151Z,95154.03
2022-10-28T19:40:11.140Z,95155.63
2022-10-28T19:42:38.995Z,95155.72
2022-10-28T19:45:06.749Z,95158.25
2022-10-28T19:47:33.396Z,95158.06
2022-10-28T19:50:00.146Z,95156.28
2022-10-28T19:52:26.930Z,95157.84
2022-10-28T19:54:53.592Z,95159.59
2022-10-28T19:57:20.238Z,95160.56
2022-10-28T19:59:46.910Z,95162.63
2022-10-28T20:02:13.741Z,95167.94
2022-10-28T20:04:40.479Z,95166.91
2022-10-28T20:07:07.297Z,95168.63
2022-10-28T20:09:33.903Z,95172.56
2022-10-28T20:12:01.929Z,95169.44
2022-10-28T20:14:29.227Z,95174.50
2022-10-28T20:16:55.988Z,95173.38
2022-10-28T20:19:22.643Z,95172.16
2022-10-28T20:21:50.041Z,95172.31
2022-10-28T20:24:17.456Z,95176.78
2022-10-28T20:26:44.104Z,95176.41
2022-10-28T20:29:10.901Z,95170.06
2022-10-28T20:31:39.061Z,95173.28
2022-10-28T20:34:05.858Z,95184.00
2022-10-28T20:36:35.154Z,95184.00
2022-10-28T20:39:02.594Z,95182.09
2022-10-28T20:41:31.221Z,95182.09
2022-10-28T20:43:58.294Z,95184.88
2022-10-28T20:46:26.144Z,95185.06
2022-10-28T20:48:56.631Z,95183.44
2022-10-28T20:51:25.683Z,95180.91
2022-10-28T20:53:52.401Z,95186.53
2022-10-28T20:56:26.275Z,95181.94
2022-10-28T20:58:53.824Z,95187.63
2022-10-28T21:01:25.689Z,95182.16
2022-10-28T21:03:57.480Z,95186.00
2022-10-28T21:06:24.300Z,95183.88
2022-10-28T21:08:51.257Z,95186.06
2022-10-28T21:11:18.452Z,95175.97
2022-10-28T21:13:51.965Z,95180.16
2022-10-28T21:16:19.208Z,95188.34
2022-10-28T21:18:45.869Z,95182.97
2022-10-28T21:21:12.572Z,95188.34
2022-10-28T21:23:39.263Z,95181.94
2022-10-28T21:26:07.451Z,95185.88
2022-10-28T21:28:34.880Z,95179.88
2022-10-28T21:31:06.901Z,95175.88
2022-10-28T21:33:35.251Z,95184.97
2022-10-28T21:36:04.379Z,95172.50
2022-10-28T21:38:31.070Z,95175.72
2022-10-28T21:41:27.168Z,95181.00
2022-10-28T21:43:54.338Z,95176.78
2022-10-28T21:46:22.444Z,95175.53
2022-10-28T21:48:49.298Z,95179.56
2022-10-28T21:51:17.005Z,95179.13
2022-10-28T21:53:44.631Z,95183.41
2022-10-28T21:56:19.584Z,95182.50
2022-10-28T21:58:48.185Z,95176.59
2022-10-28T22:01:20.735Z,95175.88
2022-10-28T22:03:47.471Z,95174.22
2022-10-28T22:06:14.446Z,95174.72
2022-10-28T22:08:41.315Z,95171.69
2022-10-28T22:11:18.832Z,95172.31
2022-10-28T22:13:45.995Z,95176.81
2022-10-28T22:16:14.707Z,95177.03
2022-10-28T22:18:41.624Z,95174.44
2022-10-28T22:21:22.943Z,95174.38
2022-10-28T22:23:50.278Z,95179.75
2022-10-28T22:26:19.324Z,95175.19
2022-10-28T22:28:46.139Z,95182.41
2022-10-28T22:31:15.639Z,95176.41
2022-10-28T22:33:42.640Z,95181.16
2022-10-28T22:36:14.631Z,95174.00
2022-10-28T22:38:41.622Z,95176.25
2022-10-28T22:41:12.106Z,95179.63
2022-10-28T22:43:39.651Z,95179.91
2022-10-28T22:46:06.682Z,95175.38
2022-10-28T22:48:33.493Z,95180.19
2022-10-28T22:51:00.231Z,95186.34
2022-10-28T22:53:27.038Z,95184.47
2022-10-28T22:55:54.094Z,95185.63
2022-10-28T22:58:21.413Z,95182.84
2022-10-28T23:00:48.578Z,95180.91
2022-10-28T23:03:15.570Z,95176.78
2022-10-28T23:05:42.137Z,95174.13
2022-10-28T23:08:14.781Z,95178.03
2022-10-28T23:10:41.598Z,95172.56
2022-10-28T23:13:11.885Z,95162.56
2022-10-28T23:15:38.586Z,95174.91
2022-10-28T23:18:05.273Z,95171.06
2022-10-28T23:20:31.952Z,95173.94
2022-10-28T23:22:58.590Z,95170.53
2022-10-28T23:25:25.334Z,95178.19
2022-10-28T23:27:52.348Z,95169.09
2022-10-28T23:30:19.316Z,95165.09
2022-10-28T23:32:45.905Z,95169.91
2022-10-28T23:35:12.520Z,95166.22
2022-10-28T23:37:39.162Z,95168.53
2022-10-28T23:40:06.428Z,95161.41
2022-10-28T23:42:33.144Z,95163.72
2022-10-28T23:44:59.905Z,95161.06
2022-10-28T23:47:26.535Z,95164.63
2022-10-28T23:49:53.214Z,95172.66
2022-10-28T23:52:20.145Z,95169.25
2022-10-28T23:54:46.816Z,95166.50
2022-10-28T23:57:13.556Z,95167.09
2022-10-28T23:59:40.257Z,95173.88
